createdAt,value
2023-04-08T00:00:52.666Z,3.90
2023-04-08T00:03:21.090Z,4.10
2023-04-08T00:05:49.060Z,3.80
2023-04-08T00:08:18.242Z,4.00
2023-04-08T00:10:46.106Z,3.80
2023-04-08T00:13:14.848Z,3.70
2023-04-08T00:15:42.968Z,3.80
2023-04-08T00:18:10.862Z,3.60
2023-04-08T00:20:38.813Z,3.50
2023-04-08T00:23:06.796Z,3.60
2023-04-08T00:25:36.152Z,3.60
2023-04-08T00:28:04.075Z,3.50
2023-04-08T00:30:32.005Z,3.40
2023-04-08T00:32:59.925Z,3.40
2023-04-08T00:35:28.051Z,3.20
2023-04-08T00:37:55.956Z,3.30
2023-04-08T00:40:23.852Z,3.10
2023-04-08T00:42:53.082Z,3.10
2023-04-08T00:45:20.953Z,3.20
2023-04-08T00:47:52.561Z,3.10
2023-04-08T00:50:21.070Z,3.10
2023-04-08T00:52:48.961Z,3.20
2023-04-08T00:55:16.813Z,3.10
2023-04-08T00:57:44.760Z,2.90
2023-04-08T01:00:15.954Z,3.00
2023-04-08T01:02:49.107Z,2.90
2023-04-08T01:05:21.986Z,2.70
2023-04-08T01:07:50.839Z,2.80
2023-04-08T01:10:23.172Z,2.60
2023-04-08T01:12:55.081Z,2.70
2023-04-08T01:15:26.946Z,2.80
2023-04-08T01:17:57.395Z,2.60
2023-04-08T01:20:26.610Z,2.50
2023-04-08T01:23:10.637Z,2.50
2023-04-08T01:25:39.612Z,2.70
2023-04-08T01:28:12.317Z,2.60
2023-04-08T01:30:41.570Z,2.70
2023-04-08T01:33:11.388Z,2.70
2023-04-08T01:35:39.931Z,2.30
2023-04-08T01:38:09.853Z,2.40
2023-04-08T01:40:40.328Z,2.40
2023-04-08T01:43:11.245Z,2.40
2023-04-08T01:45:39.523Z,2.50
2023-04-08T01:48:08.346Z,2.30
2023-04-08T01:50:36.684Z,2.00
2023-04-08T01:53:06.526Z,2.10
2023-04-08T01:55:34.705Z,2.20
2023-04-08T01:58:03.797Z,2.30
2023-04-08T02:00:34.924Z,2.30
2023-04-08T02:03:05.096Z,2.30
2023-04-08T02:05:33.151Z,2.10
2023-04-08T02:08:00.990Z,2.00
2023-04-08T02:10:29.060Z,2.10
2023-04-08T02:12:57.705Z,2.00
2023-04-08T02:15:27.451Z,2.10
2023-04-08T02:18:00.754Z,2.00
2023-04-08T02:20:35.802Z,1.90
2023-04-08T02:23:08.621Z,1.90
2023-04-08T02:25:39.878Z,1.70
2023-04-08T02:28:11.141Z,1.90
2023-04-08T02:30:42.341Z,1.80
2023-04-08T02:33:14.602Z,1.90
2023-04-08T02:35:43.412Z,1.90
2023-04-08T02:38:11.689Z,1.90
2023-04-08T02:40:39.624Z,1.80
2023-04-08T02:43:07.490Z,2.00
2023-04-08T02:45:41.826Z,1.80
2023-04-08T02:48:11.440Z,2.00
2023-04-08T02:50:39.830Z,1.90
2023-04-08T02:53:08.314Z,1.70
2023-04-08T02:55:36.180Z,1.90
2023-04-08T02:58:04.011Z,1.80
2023-04-08T03:00:31.980Z,1.60
2023-04-08T03:02:59.993Z,1.60
2023-04-08T03:05:29.588Z,1.70
2023-04-08T03:07:57.430Z,1.60
2023-04-08T03:10:25.584Z,1.60
2023-04-08T03:12:53.651Z,1.90
2023-04-08T03:15:21.609Z,1.50
2023-04-08T03:17:49.531Z,1.40
2023-04-08T03:20:17.585Z,1.50
2023-04-08T03:22:46.754Z,1.40
2023-04-08T03:25:14.630Z,1.60
2023-04-08T03:27:42.518Z,1.50
2023-04-08T03:30:10.880Z,1.50
2023-04-08T03:32:38.860Z,1.50
2023-04-08T03:35:07.606Z,1.40
2023-04-08T03:37:35.861Z,1.80
2023-04-08T03:40:05.731Z,1.80
2023-04-08T03:42:35.000Z,1.90
2023-04-08T03:45:02.864Z,1.90
2023-04-08T03:47:31.534Z,2.20
2023-04-08T03:49:59.384Z,2.20
2023-04-08T03:52:27.242Z,2.40
2023-04-08T03:54:55.149Z,2.40
2023-04-08T03:57:24.365Z,2.40
2023-04-08T03:59:52.156Z,2.50
2023-04-08T04:02:20.137Z,2.80
2023-04-08T04:04:48.057Z,3.00
2023-04-08T04:07:16.404Z,2.90
2023-04-08T04:09:44.207Z,3.00
2023-04-08T04:12:12.075Z,3.00
2023-04-08T04:14:41.257Z,2.90
2023-04-08T04:17:09.074Z,3.40
2023-04-08T04:19:36.884Z,3.30
2023-04-08T04:22:04.678Z,3.40
2023-04-08T04:24:32.504Z,3.30
2023-04-08T04:27:00.384Z,3.40
2023-04-08T04:29:28.300Z,3.50
2023-04-08T04:31:57.480Z,3.60
2023-04-08T04:34:25.386Z,3.50
2023-04-08T04:36:53.202Z,3.60
2023-04-08T04:39:21.060Z,3.70
2023-04-08T04:41:49.313Z,3.80
2023-04-08T04:44:17.153Z,3.80
2023-04-08T04:46:45.146Z,3.60
2023-04-08T04:49:14.338Z,3.80
2023-04-08T04:51:42.301Z,3.90
2023-04-08T04:54:10.257Z,3.80
2023-04-08T04:56:38.122Z,4.00
2023-04-08T04:59:06.633Z,4.10
2023-04-08T05:01:34.544Z,3.90
2023-04-08T05:04:02.496Z,4.10
2023-04-08T05:06:31.627Z,4.20
2023-04-08T05:08:59.472Z,4.00
2023-04-08T05:11:27.364Z,4.30
2023-04-08T05:13:55.363Z,4.00
2023-04-08T05:16:23.237Z,4.00
2023-04-08T05:18:51.453Z,4.30
2023-04-08T05:21:19.480Z,4.00
2023-04-08T05:23:48.623Z,4.20
2023-04-08T05:26:17.854Z,4.20
2023-04-08T05:28:46.539Z,4.20
2023-04-08T05:31:16.567Z,4.30
2023-04-08T05:33:44.607Z,4.00
2023-04-08T05:36:12.519Z,4.00
2023-04-08T05:38:40.548Z,4.20
2023-04-08T05:41:09.962Z,4.30
2023-04-08T05:43:37.965Z,4.20
2023-04-08T05:46:09.039Z,4.30
2023-04-08T05:48:37.061Z,4.40
2023-04-08T05:51:05.151Z,4.60
2023-04-08T05:53:32.960Z,4.70
2023-04-08T05:56:00.938Z,4.60
2023-04-08T05:58:30.187Z,4.90
2023-04-08T06:00:58.006Z,5.00
2023-04-08T06:03:26.153Z,5.00
2023-04-08T06:05:54.106Z,5.10
2023-04-08T06:08:22.476Z,5.00
2023-04-08T06:10:51.284Z,5.20
2023-04-08T06:13:20.183Z,5.10
2023-04-08T06:15:50.197Z,5.40
2023-04-08T06:18:18.344Z,5.60
2023-04-08T06:20:46.494Z,5.70
2023-04-08T06:23:14.398Z,5.60
2023-04-08T06:25:42.436Z,5.90
2023-04-08T06:28:10.289Z,6.10
2023-04-08T06:30:38.215Z,6.30
2023-04-08T06:33:07.486Z,6.50
2023-04-08T06:35:37.351Z,6.50
2023-04-08T06:38:05.375Z,6.60
2023-04-08T06:40:33.234Z,6.60
2023-04-08T06:43:01.097Z,6.40
2023-04-08T06:45:29.057Z,6.40
2023-04-08T06:47:57.345Z,6.50
2023-04-08T06:50:26.779Z,6.40
2023-04-08T06:52:55.006Z,6.60
2023-04-08T06:55:22.840Z,6.30
2023-04-08T06:57:50.740Z,6.50
2023-04-08T07:00:19.084Z,6.40
2023-04-08T07:02:47.136Z,6.40
2023-04-08T07:05:15.252Z,6.40
2023-04-08T07:07:44.426Z,6.20
2023-04-08T07:10:13.623Z,6.30
2023-04-08T07:12:41.480Z,6.30
2023-04-08T07:15:10.633Z,6.20
2023-04-08T07:17:39.429Z,6.10
2023-04-08T07:20:08.496Z,6.10
2023-04-08T07:22:36.283Z,6.30
2023-04-08T07:25:06.000Z,6.30
2023-04-08T07:27:34.885Z,6.60
2023-04-08T07:30:02.903Z,6.50
2023-04-08T07:32:30.849Z,6.40
2023-04-08T07:35:00.091Z,6.80
2023-04-08T07:37:28.096Z,6.70
2023-04-08T07:39:56.286Z,6.50
2023-04-08T07:42:25.891Z,6.40
2023-04-08T07:44:53.990Z,6.40
2023-04-08T07:47:22.025Z,6.40
2023-04-08T07:49:49.921Z,6.60
2023-04-08T07:52:17.777Z,6.50
2023-04-08T07:54:45.578Z,6.80
2023-04-08T07:57:13.571Z,7.00
2023-04-08T07:59:42.825Z,7.00
2023-04-08T08:02:10.798Z,7.50
2023-04-08T08:04:38.880Z,7.60
2023-04-08T08:07:06.830Z,7.80
2023-04-08T08:09:34.764Z,7.90
2023-04-08T08:12:03.141Z,8.00
2023-04-08T08:14:30.999Z,8.30
2023-04-08T08:17:01.521Z,8.20
2023-04-08T08:19:29.346Z,8.30
2023-04-08T08:21:57.584Z,8.30
2023-04-08T08:24:25.860Z,8.50
2023-04-08T08:26:53.780Z,8.60
2023-04-08T08:29:21.637Z,8.70
2023-04-08T08:31:49.654Z,8.60
2023-04-08T08:34:18.854Z,8.70
2023-04-08T08:36:46.710Z,8.50
2023-04-08T08:39:14.584Z,8.50
2023-04-08T08:41:42.455Z,8.50
2023-04-08T08:44:12.072Z,8.40
2023-04-08T08:46:45.335Z,8.40
2023-04-08T08:49:13.838Z,8.50
2023-04-08T08:51:43.665Z,8.30
2023-04-08T08:54:11.614Z,8.50
2023-04-08T08:56:39.793Z,8.60
2023-04-08T08:59:07.992Z,8.90
2023-04-08T09:01:37.403Z,9.10
2023-04-08T09:04:15.736Z,9.20
2023-04-08T09:06:46.531Z,9.60
2023-04-08T09:09:14.948Z,9.70
2023-04-08T09:11:44.117Z,9.70
2023-04-08T09:14:22.576Z,9.40
2023-04-08T09:16:50.933Z,9.30
2023-04-08T09:19:18.999Z,9.40
2023-04-08T09:22:06.825Z,9.40
2023-04-08T09:24:35.632Z,9.50
2023-04-08T09:27:03.649Z,9.80
2023-04-08T09:29:34.288Z,10.10
2023-04-08T09:32:03.885Z,10.40
2023-04-08T09:34:34.057Z,10.50
2023-04-08T09:37:03.464Z,10.70
2023-04-08T09:39:32.434Z,10.60
2023-04-08T09:42:01.950Z,10.70
2023-04-08T09:44:32.360Z,10.80
2023-04-08T09:47:09.338Z,11.00
2023-04-08T09:49:43.279Z,11.10
2023-04-08T09:52:16.081Z,10.90
2023-04-08T09:54:53.556Z,10.90
2023-04-08T09:57:29.808Z,11.10
2023-04-08T10:00:05.687Z,10.90
2023-04-08T10:02:40.543Z,10.40
2023-04-08T10:05:09.424Z,10.40
2023-04-08T10:07:38.983Z,10.60
2023-04-08T10:10:09.269Z,10.80
2023-04-08T10:12:37.745Z,10.60
2023-04-08T10:15:25.345Z,10.70
2023-04-08T10:17:53.422Z,10.90
2023-04-08T10:20:43.708Z,10.80
2023-04-08T10:23:14.165Z,10.70
2023-04-08T10:25:42.613Z,10.70
2023-04-08T10:28:26.435Z,11.10
2023-04-08T10:30:55.540Z,11.50
2023-04-08T10:33:25.848Z,11.20
2023-04-08T10:36:02.851Z,11.20
2023-04-08T10:38:32.762Z,11.20
2023-04-08T10:41:00.609Z,11.10
2023-04-08T10:43:34.066Z,11.10
2023-04-08T10:46:02.197Z,11.10
2023-04-08T10:48:30.269Z,11.20
2023-04-08T10:50:59.989Z,11.40
2023-04-08T10:53:29.393Z,11.60
2023-04-08T10:56:07.477Z,11.60
2023-04-08T10:58:36.295Z,11.70
2023-04-08T11:01:06.772Z,11.50
2023-04-08T11:03:35.693Z,11.50
2023-04-08T11:06:04.343Z,11.30
2023-04-08T11:08:33.277Z,11.20
2023-04-08T11:11:02.322Z,11.30
2023-04-08T11:13:32.266Z,11.20
2023-04-08T11:16:02.498Z,11.50
2023-04-08T11:18:31.330Z,11.80
2023-04-08T11:21:00.311Z,12.20
2023-04-08T11:23:28.784Z,12.60
2023-04-08T11:25:57.100Z,12.80
2023-04-08T11:28:25.903Z,12.90
2023-04-08T11:30:55.976Z,13.00
2023-04-08T11:33:27.010Z,12.80
2023-04-08T11:35:55.524Z,12.50
2023-04-08T11:38:24.441Z,12.50
2023-04-08T11:40:56.061Z,12.30
2023-04-08T11:43:24.295Z,12.40
2023-04-08T11:45:52.156Z,12.70
2023-04-08T11:48:21.679Z,12.40
2023-04-08T11:50:51.610Z,12.40
2023-04-08T11:53:20.568Z,12.50
2023-04-08T11:55:49.412Z,12.30
2023-04-08T11:58:17.556Z,12.10
2023-04-08T12:00:45.798Z,12.20
2023-04-08T12:03:14.171Z,11.80
2023-04-08T12:05:43.565Z,11.80
2023-04-08T12:08:11.467Z,11.70
2023-04-08T12:10:39.367Z,11.80
2023-04-08T12:13:07.224Z,11.80
2023-04-08T12:15:35.149Z,11.80
2023-04-08T12:18:03.162Z,11.90
2023-04-08T12:20:31.101Z,11.80
2023-04-08T12:23:00.301Z,11.80
2023-04-08T12:25:29.078Z,11.90
2023-04-08T12:27:56.952Z,11.90
2023-04-08T12:30:24.784Z,11.70
2023-04-08T12:32:55.117Z,11.80
2023-04-08T12:35:23.206Z,11.80
2023-04-08T12:37:51.058Z,11.90
2023-04-08T12:40:20.455Z,12.00
2023-04-08T12:42:48.404Z,11.90
2023-04-08T12:45:16.502Z,11.70
2023-04-08T12:47:44.462Z,11.60
2023-04-08T12:50:12.389Z,11.50
2023-04-08T12:52:40.579Z,11.50
2023-04-08T12:55:09.118Z,11.50
2023-04-08T12:57:38.348Z,11.80
2023-04-08T13:00:07.269Z,11.70
2023-04-08T13:02:35.277Z,11.30
2023-04-08T13:05:03.345Z,11.20
2023-04-08T13:07:31.215Z,11.30
2023-04-08T13:09:59.242Z,11.40
2023-04-08T13:12:27.088Z,11.30
2023-04-08T13:14:56.446Z,11.40
2023-04-08T13:17:24.345Z,11.60
2023-04-08T13:19:52.420Z,11.80
2023-04-08T13:22:20.274Z,11.60
2023-04-08T13:24:48.177Z,11.40
2023-04-08T13:27:16.085Z,11.70
2023-04-08T13:29:44.014Z,11.70
2023-04-08T13:32:13.500Z,12.00
2023-04-08T13:34:42.372Z,12.10
2023-04-08T13:37:10.629Z,12.00
2023-04-08T13:39:38.555Z,12.20
2023-04-08T13:42:06.511Z,12.30
2023-04-08T13:44:34.537Z,12.30
2023-04-08T13:47:02.589Z,12.20
2023-04-08T13:49:31.914Z,12.10
2023-04-08T13:51:59.873Z,12.20
2023-04-08T13:54:27.731Z,12.00
2023-04-08T13:56:55.782Z,11.70
2023-04-08T13:59:23.704Z,11.60
2023-04-08T14:01:54.251Z,11.70
2023-04-08T14:04:22.881Z,12.10
2023-04-08T14:06:53.176Z,12.30
2023-04-08T14:09:21.580Z,12.30
2023-04-08T14:11:49.597Z,12.30
2023-04-08T14:14:17.571Z,12.30
2023-04-08T14:16:45.522Z,12.10
2023-04-08T14:19:13.648Z,11.90
2023-04-08T14:21:41.586Z,11.90
2023-04-08T14:24:10.975Z,12.00
2023-04-08T14:26:38.857Z,12.00
2023-04-08T14:29:07.638Z,12.00
2023-04-08T14:31:36.330Z,12.20
2023-04-08T14:34:05.035Z,12.40
2023-04-08T14:36:33.046Z,12.40
2023-04-08T14:39:01.156Z,12.30
2023-04-08T14:41:30.655Z,12.20
2023-04-08T14:43:58.576Z,12.30
2023-04-08T14:46:29.047Z,12.40
2023-04-08T14:48:57.240Z,12.70
2023-04-08T14:51:25.233Z,12.70
2023-04-08T14:53:53.118Z,12.70
2023-04-08T14:56:21.168Z,12.80
2023-04-08T14:58:50.716Z,12.50
2023-04-08T15:01:18.892Z,12.50
2023-04-08T15:03:47.363Z,12.10
2023-04-08T15:06:17.672Z,11.80
2023-04-08T15:08:45.702Z,12.00
2023-04-08T15:11:13.756Z,12.10
2023-04-08T15:13:41.748Z,12.00
2023-04-08T15:16:11.182Z,12.10
2023-04-08T15:18:39.238Z,12.10
2023-04-08T15:21:07.190Z,11.80
2023-04-08T15:23:35.538Z,11.60
2023-04-08T15:26:03.487Z,11.50
2023-04-08T15:28:31.412Z,11.60
2023-04-08T15:30:59.400Z,11.80
2023-04-08T15:33:28.747Z,11.90
2023-04-08T15:35:57.450Z,12.00
2023-04-08T15:38:25.502Z,11.90
2023-04-08T15:40:53.609Z,11.50
2023-04-08T15:43:21.480Z,11.40
2023-04-08T15:45:49.429Z,11.40
2023-04-08T15:48:17.557Z,11.40
2023-04-08T15:50:47.171Z,11.40
2023-04-08T15:53:15.110Z,11.40
2023-04-08T15:55:43.107Z,11.50
2023-04-08T15:58:11.036Z,11.40
2023-04-08T16:00:39.004Z,11.30
2023-04-08T16:03:08.921Z,11.10
2023-04-08T16:05:39.247Z,11.00
2023-04-08T16:08:08.754Z,11.10
2023-04-08T16:10:36.744Z,11.00
2023-04-08T16:13:04.704Z,10.90
2023-04-08T16:15:34.006Z,10.80
2023-04-08T16:18:03.077Z,10.80
2023-04-08T16:20:31.073Z,10.90
2023-04-08T16:22:59.033Z,11.00
2023-04-08T16:25:28.591Z,11.10
2023-04-08T16:27:56.588Z,11.00
2023-04-08T16:30:24.551Z,11.00
2023-04-08T16:32:52.910Z,11.10
2023-04-08T16:35:22.280Z,11.00
2023-04-08T16:37:50.196Z,10.90
2023-04-08T16:40:18.745Z,11.00
2023-04-08T16:42:50.288Z,10.90
2023-04-08T16:45:18.463Z,11.00
2023-04-08T16:47:46.818Z,11.00
2023-04-08T16:50:14.929Z,11.10
2023-04-08T16:52:49.154Z,11.00
2023-04-08T16:55:17.355Z,10.90
2023-04-08T16:57:45.251Z,10.80
2023-04-08T17:00:16.863Z,10.70
2023-04-08T17:02:46.169Z,10.60
2023-04-08T17:05:14.280Z,10.70
2023-04-08T17:07:42.188Z,10.70
2023-04-08T17:10:11.184Z,10.60
2023-04-08T17:12:39.192Z,10.70
2023-04-08T17:15:08.330Z,10.60
2023-04-08T17:17:37.771Z,10.40
2023-04-08T17:20:07.357Z,10.20
2023-04-08T17:22:35.699Z,10.40
2023-04-08T17:25:03.609Z,10.40
2023-04-08T17:27:31.582Z,10.40
2023-04-08T17:29:59.484Z,10.40
2023-04-08T17:32:27.746Z,10.40
2023-04-08T17:34:57.101Z,10.50
2023-04-08T17:37:25.077Z,10.50
2023-04-08T17:39:53.022Z,10.30
2023-04-08T17:42:22.362Z,10.30
2023-04-08T17:44:50.283Z,10.30
2023-04-08T17:47:18.223Z,10.20
2023-04-08T17:49:46.335Z,10.00
2023-04-08T17:52:15.759Z,10.00
2023-04-08T17:54:43.937Z,10.10
2023-04-08T17:57:13.226Z,10.10
2023-04-08T17:59:41.298Z,10.00
2023-04-08T18:02:09.293Z,10.00
2023-04-08T18:04:38.836Z,9.90
2023-04-08T18:07:06.734Z,9.90
2023-04-08T18:09:36.066Z,10.10
2023-04-08T18:12:04.000Z,10.00
2023-04-08T18:14:31.904Z,9.80
2023-04-08T18:16:59.817Z,9.90
2023-04-08T18:19:27.697Z,9.90
2023-04-08T18:21:55.736Z,10.00
2023-04-08T18:24:23.756Z,9.80
2023-04-08T18:27:04.151Z,9.90
2023-04-08T18:29:32.814Z,9.90
2023-04-08T18:32:00.781Z,10.00
2023-04-08T18:34:28.710Z,10.00
2023-04-08T18:36:56.759Z,9.90
2023-04-08T18:39:24.633Z,9.70
2023-04-08T18:41:53.912Z,9.60
2023-04-08T18:44:21.760Z,9.60
2023-04-08T18:46:49.687Z,9.70
2023-04-08T18:49:17.719Z,9.60
2023-04-08T18:51:58.977Z,9.50
2023-04-08T18:54:30.132Z,9.50
2023-04-08T18:56:59.531Z,9.50
2023-04-08T18:59:28.827Z,9.50
2023-04-08T19:01:57.117Z,9.40
2023-04-08T19:04:25.307Z,9.50
2023-04-08T19:06:53.303Z,9.40
2023-04-08T19:09:21.225Z,9.50
2023-04-08T19:11:49.311Z,9.60
2023-04-08T19:14:18.649Z,9.50
2023-04-08T19:16:46.516Z,9.40
2023-04-08T19:19:14.509Z,9.60
2023-04-08T19:21:42.391Z,9.50
2023-04-08T19:24:10.324Z,9.40
2023-04-08T19:26:38.301Z,9.50
2023-04-08T19:29:06.163Z,9.40
2023-04-08T19:31:35.416Z,9.20
2023-04-08T19:34:03.362Z,9.30
2023-04-08T19:36:31.765Z,9.40
2023-04-08T19:39:01.454Z,9.40
2023-04-08T19:41:29.352Z,9.40
2023-04-08T19:43:57.278Z,9.40
2023-04-08T19:46:25.424Z,9.30
2023-04-08T19:48:56.141Z,9.10
2023-04-08T19:51:24.239Z,9.20
2023-04-08T19:53:54.109Z,9.20
2023-04-08T19:56:22.260Z,9.20
2023-04-08T19:58:50.437Z,9.20
2023-04-08T20:01:18.835Z,9.20
2023-04-08T20:03:49.942Z,9.20
2023-04-08T20:06:19.988Z,9.00
2023-04-08T20:08:50.091Z,9.10
2023-04-08T20:11:18.375Z,9.10
2023-04-08T20:13:46.954Z,9.00
2023-04-08T20:16:15.079Z,9.10
2023-04-08T20:18:43.208Z,9.00
2023-04-08T20:21:13.781Z,9.20
2023-04-08T20:23:44.991Z,9.30
2023-04-08T20:26:13.314Z,9.20
2023-04-08T20:28:41.719Z,9.30
2023-04-08T20:31:10.351Z,9.20
2023-04-08T20:33:43.542Z,9.20
2023-04-08T20:36:12.189Z,9.20
2023-04-08T20:38:40.432Z,9.10
2023-04-08T20:41:09.695Z,9.10
2023-04-08T20:43:39.360Z,9.10
2023-04-08T20:46:07.467Z,9.10
2023-04-08T20:48:35.990Z,9.20
2023-04-08T20:51:03.950Z,9.20
2023-04-08T20:53:32.099Z,9.30
2023-04-08T20:55:59.943Z,9.20
2023-04-08T20:58:29.458Z,9.20
2023-04-08T21:00:59.042Z,9.20
2023-04-08T21:03:27.775Z,9.20
2023-04-08T21:05:56.304Z,9.10
2023-04-08T21:08:24.227Z,9.10
2023-04-08T21:10:52.234Z,9.10
2023-04-08T21:13:20.228Z,9.00
2023-04-08T21:15:49.674Z,9.00
2023-04-08T21:18:17.522Z,9.00
2023-04-08T21:20:45.492Z,8.90
2023-04-08T21:23:13.423Z,8.80
2023-04-08T21:25:41.381Z,8.80
2023-04-08T21:28:09.245Z,8.90
2023-04-08T21:30:37.172Z,8.70
2023-04-08T21:33:06.696Z,8.80
2023-04-08T21:35:34.700Z,8.70
2023-04-08T21:38:02.710Z,8.90
2023-04-08T21:40:30.713Z,8.80
2023-04-08T21:42:58.606Z,8.90
2023-04-08T21:45:26.519Z,8.90
2023-04-08T21:47:55.161Z,8.80
2023-04-08T21:50:24.579Z,8.80
2023-04-08T21:52:52.463Z,8.80
2023-04-08T21:55:20.512Z,8.80
2023-04-08T21:57:48.987Z,8.70
2023-04-08T22:00:17.077Z,8.90
2023-04-08T22:02:45.165Z,8.80
2023-04-08T22:05:13.391Z,8.80
2023-04-08T22:07:42.773Z,8.90
2023-04-08T22:10:11.611Z,8.80
2023-04-08T22:12:39.571Z,8.80
2023-04-08T22:15:08.596Z,8.70
2023-04-08T22:17:37.135Z,8.80
2023-04-08T22:20:05.911Z,8.90
2023-04-08T22:22:33.998Z,9.00
2023-04-08T22:25:03.392Z,8.80
2023-04-08T22:27:31.334Z,8.70
2023-04-08T22:29:59.269Z,8.90
2023-04-08T22:32:27.153Z,8.80
2023-04-08T22:34:55.480Z,8.80
2023-04-08T22:37:23.385Z,8.70
2023-04-08T22:39:51.294Z,8.70
2023-04-08T22:42:20.679Z,8.90
2023-04-08T22:44:48.537Z,8.70
2023-04-08T22:47:16.618Z,8.80
2023-04-08T22:49:44.571Z,8.80
2023-04-08T22:52:12.544Z,8.90
2023-04-08T22:54:40.392Z,8.90
2023-04-08T22:57:08.237Z,8.80
2023-04-08T22:59:37.561Z,8.80
2023-04-08T23:02:05.571Z,8.80
2023-04-08T23:04:33.540Z,8.70
2023-04-08T23:07:01.501Z,8.90
2023-04-08T23:09:29.534Z,8.80
2023-04-08T23:11:57.958Z,8.80
2023-04-08T23:14:26.160Z,8.80
2023-04-08T23:16:55.565Z,8.80
2023-04-08T23:19:23.379Z,8.90
2023-04-08T23:21:51.212Z,8.80
2023-04-08T23:24:19.167Z,8.70
2023-04-08T23:26:48.654Z,8.80
2023-04-08T23:29:16.804Z,8.60
2023-04-08T23:31:44.734Z,8.70
2023-04-08T23:34:14.100Z,8.70
2023-04-08T23:36:42.093Z,8.60
2023-04-08T23:39:10.146Z,8.60
2023-04-08T23:41:38.033Z,8.70
2023-04-08T23:44:06.265Z,8.70
2023-04-08T23:46:34.532Z,8.60
2023-04-08T23:49:02.458Z,8.70
2023-04-08T23:51:31.965Z,8.70
2023-04-08T23:53:59.826Z,8.80
2023-04-08T23:56:27.803Z,8.80
2023-04-08T23:58:55.718Z,8.90
